sensor_id;sensor_type;location;lat;lon;timestamp;temperature;humidity
827;DHT22;395;48.132;11.608;2022-10-22T00:02:05;17.00;20.30
827;DHT22;395;48.132;11.608;2022-10-22T00:04:32;17.00;20.40
827;DHT22;395;48.132;11.608;2022-10-22T00:06:58;17.00;20.30
827;DHT22;395;48.132;11.608;2022-10-22T00:09:24;16.90;21.40
827;DHT22;395;48.132;11.608;2022-10-22T00:11:50;16.90;20.60
827;DHT22;395;48.132;11.608;2022-10-22T00:14:16;16.90;20.70
827;DHT22;395;48.132;11.608;2022-10-22T00:16:43;16.90;20.40
827;DHT22;395;48.132;11.608;2022-10-22T00:19:09;17.00;20.40
827;DHT22;395;48.132;11.608;2022-10-22T00:21:35;16.90;19.80
827;DHT22;395;48.132;11.608;2022-10-22T00:24:01;17.00;19.80
827;DHT22;395;48.132;11.608;2022-10-22T00:26:26;17.00;19.40
827;DHT22;395;48.132;11.608;2022-10-22T00:28:53;16.90;19.30
827;DHT22;395;48.132;11.608;2022-10-22T00:31:18;16.90;19.40
827;DHT22;395;48.132;11.608;2022-10-22T00:33:46;16.80;20.00
827;DHT22;395;48.132;11.608;2022-10-22T00:36:12;16.80;20.00
827;DHT22;395;48.132;11.608;2022-10-22T00:38:39;16.90;19.40
827;DHT22;395;48.132;11.608;2022-10-22T00:47:47;16.80;19.80
827;DHT22;395;48.132;11.608;2022-10-22T00:50:26;16.80;19.90
827;DHT22;395;48.132;11.608;2022-10-22T00:52:53;16.80;20.50
827;DHT22;395;48.132;11.608;2022-10-22T00:55:20;16.70;21.40
827;DHT22;395;48.132;11.608;2022-10-22T00:57:47;16.70;21.70
827;DHT22;395;48.132;11.608;2022-10-22T01:00:13;16.70;23.20
827;DHT22;395;48.132;11.608;2022-10-22T01:02:39;16.50;24.90
827;DHT22;395;48.132;11.608;2022-10-22T01:05:05;16.50;24.80
827;DHT22;395;48.132;11.608;2022-10-22T01:07:36;16.40;26.10
827;DHT22;395;48.132;11.608;2022-10-22T01:10:14;16.40;26.50
827;DHT22;395;48.132;11.608;2022-10-22T01:15:40;16.40;26.50
827;DHT22;395;48.132;11.608;2022-10-22T01:18:28;16.30;27.30
827;DHT22;395;48.132;11.608;2022-10-22T01:21:25;16.20;29.00
827;DHT22;395;48.132;11.608;2022-10-22T01:24:25;16.20;28.80
827;DHT22;395;48.132;11.608;2022-10-22T01:27:06;16.20;28.90
827;DHT22;395;48.132;11.608;2022-10-22T01:32:11;16.30;29.50
827;DHT22;395;48.132;11.608;2022-10-22T01:34:40;16.30;29.50
827;DHT22;395;48.132;11.608;2022-10-22T01:37:07;16.30;29.50
827;DHT22;395;48.132;11.608;2022-10-22T01:39:34;16.30;29.50
827;DHT22;395;48.132;11.608;2022-10-22T01:42:01;16.30;29.20
827;DHT22;395;48.132;11.608;2022-10-22T01:44:33;16.30;29.50
827;DHT22;395;48.132;11.608;2022-10-22T01:50:31;16.40;29.00
827;DHT22;395;48.132;11.608;2022-10-22T01:53:21;16.40;28.80
827;DHT22;395;48.132;11.608;2022-10-22T02:01:17;16.30;29.50
827;DHT22;395;48.132;11.608;2022-10-22T02:04:03;16.30;30.00
827;DHT22;395;48.132;11.608;2022-10-22T02:06:31;16.30;29.50
827;DHT22;395;48.132;11.608;2022-10-22T02:08:58;16.30;30.00
827;DHT22;395;48.132;11.608;2022-10-22T02:11:24;16.30;29.70
827;DHT22;395;48.132;11.608;2022-10-22T02:13:53;16.40;30.00
827;DHT22;395;48.132;11.608;2022-10-22T02:16:26;16.40;29.60
827;DHT22;395;48.132;11.608;2022-10-22T02:18:53;16.30;30.00
827;DHT22;395;48.132;11.608;2022-10-22T02:21:21;16.30;30.30
827;DHT22;395;48.132;11.608;2022-10-22T02:23:47;16.30;30.10
827;DHT22;395;48.132;11.608;2022-10-22T02:26:23;16.40;30.30
827;DHT22;395;48.132;11.608;2022-10-22T02:29:01;16.40;30.00
827;DHT22;395;48.132;11.608;2022-10-22T02:31:31;16.40;30.20
827;DHT22;395;48.132;11.608;2022-10-22T02:34:01;16.40;29.70
827;DHT22;395;48.132;11.608;2022-10-22T02:36:29;16.30;30.00
827;DHT22;395;48.132;11.608;2022-10-22T02:38:56;16.30;30.50
827;DHT22;395;48.132;11.608;2022-10-22T02:41:23;16.30;31.20
827;DHT22;395;48.132;11.608;2022-10-22T02:43:53;16.30;31.30
827;DHT22;395;48.132;11.608;2022-10-22T02:46:19;16.30;31.10
827;DHT22;395;48.132;11.608;2022-10-22T02:48:45;16.30;31.60
827;DHT22;395;48.132;11.608;2022-10-22T02:51:10;16.30;31.40
827;DHT22;395;48.132;11.608;2022-10-22T02:53:36;16.40;31.00
827;DHT22;395;48.132;11.608;2022-10-22T02:56:02;16.30;30.80
827;DHT22;395;48.132;11.608;2022-10-22T02:58:27;16.40;30.80
827;DHT22;395;48.132;11.608;2022-10-22T03:00:53;16.40;30.70
827;DHT22;395;48.132;11.608;2022-10-22T03:03:18;16.30;30.90
827;DHT22;395;48.132;11.608;2022-10-22T03:05:44;16.40;31.00
827;DHT22;395;48.132;11.608;2022-10-22T03:08:10;16.40;30.90
827;DHT22;395;48.132;11.608;2022-10-22T03:10:35;16.40;31.10
827;DHT22;395;48.132;11.608;2022-10-22T03:13:01;16.40;31.10
827;DHT22;395;48.132;11.608;2022-10-22T03:15:27;16.40;31.10
827;DHT22;395;48.132;11.608;2022-10-22T03:17:52;16.40;30.40
827;DHT22;395;48.132;11.608;2022-10-22T03:20:18;16.40;30.00
827;DHT22;395;48.132;11.608;2022-10-22T03:22:43;16.40;30.20
827;DHT22;395;48.132;11.608;2022-10-22T03:25:18;16.40;30.00
827;DHT22;395;48.132;11.608;2022-10-22T03:27:45;16.40;30.00
827;DHT22;395;48.132;11.608;2022-10-22T03:30:11;16.40;30.20
827;DHT22;395;48.132;11.608;2022-10-22T03:32:36;16.40;29.60
827;DHT22;395;48.132;11.608;2022-10-22T03:35:03;16.40;29.90
827;DHT22;395;48.132;11.608;2022-10-22T03:37:30;16.40;29.20
827;DHT22;395;48.132;11.608;2022-10-22T03:39:56;16.30;28.90
827;DHT22;395;48.132;11.608;2022-10-22T03:42:22;16.30;28.20
827;DHT22;395;48.132;11.608;2022-10-22T03:44:48;16.30;26.70
827;DHT22;395;48.132;11.608;2022-10-22T03:47:14;16.20;25.90
827;DHT22;395;48.132;11.608;2022-10-22T03:49:39;16.20;25.00
827;DHT22;395;48.132;11.608;2022-10-22T03:52:10;16.10;23.80
827;DHT22;395;48.132;11.608;2022-10-22T03:54:37;16.00;24.10
827;DHT22;395;48.132;11.608;2022-10-22T03:57:04;16.00;24.50
827;DHT22;395;48.132;11.608;2022-10-22T03:59:41;15.90;24.30
827;DHT22;395;48.132;11.608;2022-10-22T04:02:07;15.90;24.30
827;DHT22;395;48.132;11.608;2022-10-22T04:04:33;15.90;24.00
827;DHT22;395;48.132;11.608;2022-10-22T04:06:58;15.90;24.00
827;DHT22;395;48.132;11.608;2022-10-22T04:09:24;15.90;22.90
827;DHT22;395;48.132;11.608;2022-10-22T04:11:50;15.90;23.60
827;DHT22;395;48.132;11.608;2022-10-22T04:14:15;15.90;23.90
827;DHT22;395;48.132;11.608;2022-10-22T04:16:41;15.90;23.30
827;DHT22;395;48.132;11.608;2022-10-22T04:19:07;15.90;23.10
827;DHT22;395;48.132;11.608;2022-10-22T04:21:33;15.90;24.00
827;DHT22;395;48.132;11.608;2022-10-22T04:23:59;15.80;23.70
827;DHT22;395;48.132;11.608;2022-10-22T04:26:24;15.90;23.70
827;DHT22;395;48.132;11.608;2022-10-22T04:28:51;15.90;23.60
827;DHT22;395;48.132;11.608;2022-10-22T04:31:18;15.90;22.90
827;DHT22;395;48.132;11.608;2022-10-22T04:33:45;15.80;23.00
827;DHT22;395;48.132;11.608;2022-10-22T04:36:15;15.80;23.50
827;DHT22;395;48.132;11.608;2022-10-22T04:38:42;15.80;23.10
827;DHT22;395;48.132;11.608;2022-10-22T04:41:20;15.80;22.60
827;DHT22;395;48.132;11.608;2022-10-22T04:43:46;15.70;23.00
827;DHT22;395;48.132;11.608;2022-10-22T04:46:13;15.70;23.20
827;DHT22;395;48.132;11.608;2022-10-22T04:48:41;15.70;23.10
827;DHT22;395;48.132;11.608;2022-10-22T04:51:10;15.70;23.40
827;DHT22;395;48.132;11.608;2022-10-22T04:53:36;15.70;22.60
827;DHT22;395;48.132;11.608;2022-10-22T04:56:12;15.70;23.10
827;DHT22;395;48.132;11.608;2022-10-22T04:58:38;15.70;22.30
827;DHT22;395;48.132;11.608;2022-10-22T05:01:15;15.70;22.10
827;DHT22;395;48.132;11.608;2022-10-22T05:03:41;15.70;22.10
827;DHT22;395;48.132;11.608;2022-10-22T05:06:08;15.60;22.00
827;DHT22;395;48.132;11.608;2022-10-22T05:08:34;15.60;21.60
827;DHT22;395;48.132;11.608;2022-10-22T05:10:59;15.60;21.50
827;DHT22;395;48.132;11.608;2022-10-22T05:13:25;15.60;21.40
827;DHT22;395;48.132;11.608;2022-10-22T05:15:51;15.60;21.30
827;DHT22;395;48.132;11.608;2022-10-22T05:18:16;15.60;21.10
827;DHT22;395;48.132;11.608;2022-10-22T05:20:42;15.60;21.30
827;DHT22;395;48.132;11.608;2022-10-22T05:23:08;15.60;20.80
827;DHT22;395;48.132;11.608;2022-10-22T05:25:37;15.60;20.20
827;DHT22;395;48.132;11.608;2022-10-22T05:28:03;15.60;19.80
827;DHT22;395;48.132;11.608;2022-10-22T05:30:29;15.60;19.80
827;DHT22;395;48.132;11.608;2022-10-22T05:32:55;15.60;19.80
827;DHT22;395;48.132;11.608;2022-10-22T05:35:20;15.60;19.00
827;DHT22;395;48.132;11.608;2022-10-22T05:37:46;15.50;18.80
827;DHT22;395;48.132;11.608;2022-10-22T05:40:12;15.50;19.10
827;DHT22;395;48.132;11.608;2022-10-22T05:42:37;15.50;19.20
827;DHT22;395;48.132;11.608;2022-10-22T05:45:03;15.50;18.70
827;DHT22;395;48.132;11.608;2022-10-22T05:47:29;15.50;18.60
827;DHT22;395;48.132;11.608;2022-10-22T05:49:55;15.50;18.70
827;DHT22;395;48.132;11.608;2022-10-22T05:52:23;15.40;17.50
827;DHT22;395;48.132;11.608;2022-10-22T05:54:49;15.40;18.30
827;DHT22;395;48.132;11.608;2022-10-22T05:57:15;15.40;17.70
827;DHT22;395;48.132;11.608;2022-10-22T05:59:40;15.40;17.60
827;DHT22;395;48.132;11.608;2022-10-22T06:02:08;15.40;16.80
827;DHT22;395;48.132;11.608;2022-10-22T06:04:34;15.40;16.20
827;DHT22;395;48.132;11.608;2022-10-22T06:07:00;15.40;16.10
827;DHT22;395;48.132;11.608;2022-10-22T06:09:35;15.50;15.90
827;DHT22;395;48.132;11.608;2022-10-22T06:12:02;15.50;16.00
827;DHT22;395;48.132;11.608;2022-10-22T06:14:28;15.50;15.90
827;DHT22;395;48.132;11.608;2022-10-22T06:16:54;15.50;15.70
827;DHT22;395;48.132;11.608;2022-10-22T06:19:21;15.50;15.60
827;DHT22;395;48.132;11.608;2022-10-22T06:21:47;15.50;16.00
827;DHT22;395;48.132;11.608;2022-10-22T06:24:13;15.50;16.00
827;DHT22;395;48.132;11.608;2022-10-22T06:26:39;15.50;16.80
827;DHT22;395;48.132;11.608;2022-10-22T06:29:06;15.50;17.10
827;DHT22;395;48.132;11.608;2022-10-22T06:31:32;15.60;17.20
827;DHT22;395;48.132;11.608;2022-10-22T06:34:02;15.50;17.00
827;DHT22;395;48.132;11.608;2022-10-22T06:36:28;15.60;17.60
827;DHT22;395;48.132;11.608;2022-10-22T06:38:55;15.60;17.70
827;DHT22;395;48.132;11.608;2022-10-22T06:41:21;15.60;17.40
827;DHT22;395;48.132;11.608;2022-10-22T06:43:47;15.70;17.10
827;DHT22;395;48.132;11.608;2022-10-22T06:46:15;15.70;16.70
827;DHT22;395;48.132;11.608;2022-10-22T06:48:41;15.70;16.50
827;DHT22;395;48.132;11.608;2022-10-22T06:51:09;15.70;17.10
827;DHT22;395;48.132;11.608;2022-10-22T06:53:36;15.80;17.30
827;DHT22;395;48.132;11.608;2022-10-22T06:56:06;15.80;17.10
827;DHT22;395;48.132;11.608;2022-10-22T06:58:32;15.80;17.60
827;DHT22;395;48.132;11.608;2022-10-22T07:01:15;15.80;17.60
827;DHT22;395;48.132;11.608;2022-10-22T07:03:41;15.80;16.90
827;DHT22;395;48.132;11.608;2022-10-22T07:06:09;15.80;17.60
827;DHT22;395;48.132;11.608;2022-10-22T07:08:36;15.80;17.40
827;DHT22;395;48.132;11.608;2022-10-22T07:11:23;15.90;17.40
827;DHT22;395;48.132;11.608;2022-10-22T07:13:50;15.90;17.00
827;DHT22;395;48.132;11.608;2022-10-22T07:16:16;15.90;16.90
827;DHT22;395;48.132;11.608;2022-10-22T07:18:42;15.90;17.10
827;DHT22;395;48.132;11.608;2022-10-22T07:21:09;15.90;17.30
827;DHT22;395;48.132;11.608;2022-10-22T07:23:36;15.90;17.70
827;DHT22;395;48.132;11.608;2022-10-22T07:26:02;15.90;16.50
827;DHT22;395;48.132;11.608;2022-10-22T07:28:29;15.80;15.30
827;DHT22;395;48.132;11.608;2022-10-22T07:30:55;15.80;15.40
827;DHT22;395;48.132;11.608;2022-10-22T07:33:20;15.80;15.20
827;DHT22;395;48.132;11.608;2022-10-22T07:35:46;15.80;14.90
827;DHT22;395;48.132;11.608;2022-10-22T07:38:12;15.90;15.00
827;DHT22;395;48.132;11.608;2022-10-22T07:40:37;16.10;16.60
827;DHT22;395;48.132;11.608;2022-10-22T07:43:04;16.10;14.60
827;DHT22;395;48.132;11.608;2022-10-22T07:45:30;16.10;14.90
827;DHT22;395;48.132;11.608;2022-10-22T07:47:55;16.10;15.20
827;DHT22;395;48.132;11.608;2022-10-22T07:50:21;16.20;14.90
827;DHT22;395;48.132;11.608;2022-10-22T07:52:47;16.20;14.90
827;DHT22;395;48.132;11.608;2022-10-22T07:55:12;16.20;14.10
827;DHT22;395;48.132;11.608;2022-10-22T07:57:39;16.20;13.90
827;DHT22;395;48.132;11.608;2022-10-22T08:00:06;16.10;13.10
827;DHT22;395;48.132;11.608;2022-10-22T08:02:32;16.30;14.70
827;DHT22;395;48.132;11.608;2022-10-22T08:04:58;16.30;15.30
827;DHT22;395;48.132;11.608;2022-10-22T08:07:24;16.30;14.20
827;DHT22;395;48.132;11.608;2022-10-22T08:09:50;16.30;14.40
827;DHT22;395;48.132;11.608;2022-10-22T08:12:15;16.40;14.20
827;DHT22;395;48.132;11.608;2022-10-22T08:14:41;16.40;13.90
827;DHT22;395;48.132;11.608;2022-10-22T08:17:07;16.40;14.00
827;DHT22;395;48.132;11.608;2022-10-22T08:19:32;16.50;14.10
827;DHT22;395;48.132;11.608;2022-10-22T08:22:00;16.50;14.10
827;DHT22;395;48.132;11.608;2022-10-22T08:24:26;16.50;14.60
827;DHT22;395;48.132;11.608;2022-10-22T08:26:52;16.50;15.40
827;DHT22;395;48.132;11.608;2022-10-22T08:29:23;16.50;15.40
827;DHT22;395;48.132;11.608;2022-10-22T08:31:49;16.60;15.50
827;DHT22;395;48.132;11.608;2022-10-22T08:34:16;16.60;15.50
827;DHT22;395;48.132;11.608;2022-10-22T08:36:42;16.60;15.50
827;DHT22;395;48.132;11.608;2022-10-22T08:39:08;16.60;15.30
827;DHT22;395;48.132;11.608;2022-10-22T08:45:12;16.70;15.50
827;DHT22;395;48.132;11.608;2022-10-22T08:50:56;16.70;14.20
827;DHT22;395;48.132;11.608;2022-10-22T08:53:31;16.70;14.10
827;DHT22;395;48.132;11.608;2022-10-22T08:56:01;16.50;12.50
827;DHT22;395;48.132;11.608;2022-10-22T09:01:16;16.60;13.40
827;DHT22;395;48.132;11.608;2022-10-22T09:03:51;16.70;14.30
827;DHT22;395;48.132;11.608;2022-10-22T09:06:27;16.70;15.00
827;DHT22;395;48.132;11.608;2022-10-22T09:08:56;16.80;14.10
827;DHT22;395;48.132;11.608;2022-10-22T09:11:32;16.90;13.70
827;DHT22;395;48.132;11.608;2022-10-22T09:13:59;16.90;13.10
827;DHT22;395;48.132;11.608;2022-10-22T09:24:39;17.00;13.20
827;DHT22;395;48.132;11.608;2022-10-22T09:27:13;17.10;13.50
827;DHT22;395;48.132;11.608;2022-10-22T09:29:40;17.10;13.90
827;DHT22;395;48.132;11.608;2022-10-22T09:32:05;17.10;13.80
827;DHT22;395;48.132;11.608;2022-10-22T09:34:32;17.20;13.70
827;DHT22;395;48.132;11.608;2022-10-22T09:37:03;17.30;13.40
827;DHT22;395;48.132;11.608;2022-10-22T09:39:43;17.40;12.70
827;DHT22;395;48.132;11.608;2022-10-22T09:42:10;17.40;11.80
827;DHT22;395;48.132;11.608;2022-10-22T09:44:38;17.50;11.30
827;DHT22;395;48.132;11.608;2022-10-22T09:47:43;17.60;10.90
827;DHT22;395;48.132;11.608;2022-10-22T09:50:17;17.60;11.30
827;DHT22;395;48.132;11.608;2022-10-22T09:52:44;17.70;11.00
827;DHT22;395;48.132;11.608;2022-10-22T09:55:17;17.70;10.70
827;DHT22;395;48.132;11.608;2022-10-22T09:57:52;17.80;10.50
827;DHT22;395;48.132;11.608;2022-10-22T10:00:19;17.90;9.90
827;DHT22;395;48.132;11.608;2022-10-22T10:02:45;17.90;9.50
827;DHT22;395;48.132;11.608;2022-10-22T10:05:19;17.80;9.00
827;DHT22;395;48.132;11.608;2022-10-22T10:07:44;17.80;8.90
827;DHT22;395;48.132;11.608;2022-10-22T10:10:20;17.80;8.90
827;DHT22;395;48.132;11.608;2022-10-22T10:13:21;17.80;9.10
827;DHT22;395;48.132;11.608;2022-10-22T10:16:25;17.80;9.50
827;DHT22;395;48.132;11.608;2022-10-22T10:27:43;17.90;9.60
827;DHT22;395;48.132;11.608;2022-10-22T10:30:19;17.90;8.90
827;DHT22;395;48.132;11.608;2022-10-22T10:35:47;17.90;9.40
827;DHT22;395;48.132;11.608;2022-10-22T10:49:19;18.00;9.20
827;DHT22;395;48.132;11.608;2022-10-22T10:52:15;18.10;9.10
827;DHT22;395;48.132;11.608;2022-10-22T11:05:44;18.10;8.30
827;DHT22;395;48.132;11.608;2022-10-22T11:08:21;18.10;8.20
827;DHT22;395;48.132;11.608;2022-10-22T11:11:11;18.10;8.20
827;DHT22;395;48.132;11.608;2022-10-22T11:16:32;18.00;8.30
827;DHT22;395;48.132;11.608;2022-10-22T11:21:35;18.00;8.20
827;DHT22;395;48.132;11.608;2022-10-22T11:29:02;17.80;8.50
827;DHT22;395;48.132;11.608;2022-10-22T11:31:30;17.80;8.30
827;DHT22;395;48.132;11.608;2022-10-22T11:34:10;17.80;8.60
827;DHT22;395;48.132;11.608;2022-10-22T11:36:38;17.80;7.70
827;DHT22;395;48.132;11.608;2022-10-22T11:39:04;17.90;7.60
827;DHT22;395;48.132;11.608;2022-10-22T11:41:32;17.90;7.60
827;DHT22;395;48.132;11.608;2022-10-22T11:44:08;18.00;7.90
827;DHT22;395;48.132;11.608;2022-10-22T11:46:55;18.00;7.50
827;DHT22;395;48.132;11.608;2022-10-22T11:49:27;18.00;7.30
827;DHT22;395;48.132;11.608;2022-10-22T11:54:47;18.20;5.30
827;DHT22;395;48.132;11.608;2022-10-22T11:57:19;18.30;5.00
827;DHT22;395;48.132;11.608;2022-10-22T11:59:51;18.30;4.30
827;DHT22;395;48.132;11.608;2022-10-22T12:02:28;18.40;4.20
827;DHT22;395;48.132;11.608;2022-10-22T12:07:53;18.50;1.30
827;DHT22;395;48.132;11.608;2022-10-22T12:10:25;18.60;1.90
827;DHT22;395;48.132;11.608;2022-10-22T12:12:57;18.70;1.80
827;DHT22;395;48.132;11.608;2022-10-22T12:15:25;18.60;1.10
827;DHT22;395;48.132;11.608;2022-10-22T12:17:59;18.70;1.00
827;DHT22;395;48.132;11.608;2022-10-22T12:20:27;18.60;1.00
827;DHT22;395;48.132;11.608;2022-10-22T12:22:54;18.60;1.00
827;DHT22;395;48.132;11.608;2022-10-22T12:25:23;18.60;1.00
827;DHT22;395;48.132;11.608;2022-10-22T12:27:52;18.70;1.00
827;DHT22;395;48.132;11.608;2022-10-22T12:30:24;18.80;1.10
827;DHT22;395;48.132;11.608;2022-10-22T12:32:52;18.70;1.00
827;DHT22;395;48.132;11.608;2022-10-22T12:35:22;18.80;1.00
827;DHT22;395;48.132;11.608;2022-10-22T12:37:50;18.80;1.30
827;DHT22;395;48.132;11.608;2022-10-22T12:40:24;18.50;1.00
827;DHT22;395;48.132;11.608;2022-10-22T12:42:54;18.40;1.00
827;DHT22;395;48.132;11.608;2022-10-22T12:45:20;18.50;1.00
827;DHT22;395;48.132;11.608;2022-10-22T12:47:50;18.40;1.50
827;DHT22;395;48.132;11.608;2022-10-22T12:50:19;18.30;1.20
827;DHT22;395;48.132;11.608;2022-10-22T12:52:47;18.30;1.10
827;DHT22;395;48.132;11.608;2022-10-22T12:55:15;18.20;1.40
827;DHT22;395;48.132;11.608;2022-10-22T12:57:41;18.10;1.40
827;DHT22;395;48.132;11.608;2022-10-22T13:00:23;18.10;1.40
827;DHT22;395;48.132;11.608;2022-10-22T13:02:50;18.30;1.00
827;DHT22;395;48.132;11.608;2022-10-22T13:07:51;18.30;1.00
827;DHT22;395;48.132;11.608;2022-10-22T13:10:24;18.40;1.10
827;DHT22;395;48.132;11.608;2022-10-22T13:12:54;18.50;1.00
827;DHT22;395;48.132;11.608;2022-10-22T13:18:18;18.50;1.00
827;DHT22;395;48.132;11.608;2022-10-22T13:23:18;18.40;1.00
827;DHT22;395;48.132;11.608;2022-10-22T13:25:56;18.40;1.00
827;DHT22;395;48.132;11.608;2022-10-22T13:28:22;18.40;1.00
827;DHT22;395;48.132;11.608;2022-10-22T13:33:26;18.50;1.00
827;DHT22;395;48.132;11.608;2022-10-22T13:35:55;18.50;1.30
827;DHT22;395;48.132;11.608;2022-10-22T13:38:24;18.50;1.50
827;DHT22;395;48.132;11.608;2022-10-22T13:40:50;18.60;1.00
827;DHT22;395;48.132;11.608;2022-10-22T13:43:16;18.70;1.00
827;DHT22;395;48.132;11.608;2022-10-22T13:45:43;18.90;1.00
827;DHT22;395;48.132;11.608;2022-10-22T13:48:18;19.00;1.00
827;DHT22;395;48.132;11.608;2022-10-22T13:50:46;19.10;1.00
827;DHT22;395;48.132;11.608;2022-10-22T13:53:17;19.10;1.00
827;DHT22;395;48.132;11.608;2022-10-22T13:55:44;19.10;1.00
827;DHT22;395;48.132;11.608;2022-10-22T13:58:28;19.10;1.00
827;DHT22;395;48.132;11.608;2022-10-22T14:00:58;19.10;1.00
827;DHT22;395;48.132;11.608;2022-10-22T14:03:28;19.10;1.00
827;DHT22;395;48.132;11.608;2022-10-22T14:05:55;19.20;1.00
827;DHT22;395;48.132;11.608;2022-10-22T14:08:22;19.00;1.00
827;DHT22;395;48.132;11.608;2022-10-22T14:10:50;18.90;1.00
827;DHT22;395;48.132;11.608;2022-10-22T14:13:18;18.90;1.00
827;DHT22;395;48.132;11.608;2022-10-22T14:15:47;19.10;1.00
827;DHT22;395;48.132;11.608;2022-10-22T14:18:18;19.20;1.00
827;DHT22;395;48.132;11.608;2022-10-22T14:20:54;19.20;1.00
827;DHT22;395;48.132;11.608;2022-10-22T14:23:22;19.10;1.00
827;DHT22;395;48.132;11.608;2022-10-22T14:25:48;19.20;1.00
827;DHT22;395;48.132;11.608;2022-10-22T14:28:16;19.30;1.00
827;DHT22;395;48.132;11.608;2022-10-22T14:30:42;19.30;1.00
827;DHT22;395;48.132;11.608;2022-10-22T14:33:20;19.30;1.00
827;DHT22;395;48.132;11.608;2022-10-22T14:35:47;19.50;1.00
827;DHT22;395;48.132;11.608;2022-10-22T14:38:14;19.60;1.00
827;DHT22;395;48.132;11.608;2022-10-22T14:40:39;19.50;1.00
827;DHT22;395;48.132;11.608;2022-10-22T14:43:11;19.40;1.00
827;DHT22;395;48.132;11.608;2022-10-22T14:45:37;19.40;1.00
827;DHT22;395;48.132;11.608;2022-10-22T14:48:02;19.50;1.00
827;DHT22;395;48.132;11.608;2022-10-22T14:50:28;19.60;1.00
827;DHT22;395;48.132;11.608;2022-10-22T14:52:54;19.70;1.00
827;DHT22;395;48.132;11.608;2022-10-22T14:55:21;19.70;1.00
827;DHT22;395;48.132;11.608;2022-10-22T14:57:47;19.60;1.00
827;DHT22;395;48.132;11.608;2022-10-22T15:00:17;19.50;1.00
827;DHT22;395;48.132;11.608;2022-10-22T15:02:43;19.60;1.00
827;DHT22;395;48.132;11.608;2022-10-22T15:05:09;19.50;1.00
827;DHT22;395;48.132;11.608;2022-10-22T15:07:35;19.50;1.00
827;DHT22;395;48.132;11.608;2022-10-22T15:10:02;19.60;1.00
827;DHT22;395;48.132;11.608;2022-10-22T15:12:28;19.50;1.00
827;DHT22;395;48.132;11.608;2022-10-22T15:14:53;19.60;1.00
827;DHT22;395;48.132;11.608;2022-10-22T15:17:19;19.60;1.00
827;DHT22;395;48.132;11.608;2022-10-22T15:19:45;19.60;1.00
827;DHT22;395;48.132;11.608;2022-10-22T15:22:11;19.70;1.00
827;DHT22;395;48.132;11.608;2022-10-22T15:24:37;19.50;1.00
827;DHT22;395;48.132;11.608;2022-10-22T15:27:03;19.50;1.00
827;DHT22;395;48.132;11.608;2022-10-22T15:29:31;19.60;1.00
827;DHT22;395;48.132;11.608;2022-10-22T15:31:58;19.70;1.00
827;DHT22;395;48.132;11.608;2022-10-22T15:34:30;19.60;1.00
827;DHT22;395;48.132;11.608;2022-10-22T15:36:57;19.60;1.00
827;DHT22;395;48.132;11.608;2022-10-22T15:39:23;19.50;1.00
827;DHT22;395;48.132;11.608;2022-10-22T15:41:50;19.50;1.00
827;DHT22;395;48.132;11.608;2022-10-22T15:44:18;19.50;1.00
827;DHT22;395;48.132;11.608;2022-10-22T15:46:44;19.50;1.00
827;DHT22;395;48.132;11.608;2022-10-22T15:49:10;19.40;1.00
827;DHT22;395;48.132;11.608;2022-10-22T15:51:37;19.40;1.00
827;DHT22;395;48.132;11.608;2022-10-22T15:54:02;19.30;1.00
827;DHT22;395;48.132;11.608;2022-10-22T15:56:29;19.30;1.00
827;DHT22;395;48.132;11.608;2022-10-22T15:58:57;19.30;1.00
827;DHT22;395;48.132;11.608;2022-10-22T16:01:24;19.20;1.00
827;DHT22;395;48.132;11.608;2022-10-22T16:03:51;19.10;1.00
827;DHT22;395;48.132;11.608;2022-10-22T16:06:25;19.00;1.00
827;DHT22;395;48.132;11.608;2022-10-22T16:08:50;19.00;1.00
827;DHT22;395;48.132;11.608;2022-10-22T16:11:16;18.80;1.00
827;DHT22;395;48.132;11.608;2022-10-22T16:13:41;18.80;1.00
827;DHT22;395;48.132;11.608;2022-10-22T16:16:08;18.80;1.00
827;DHT22;395;48.132;11.608;2022-10-22T16:18:34;18.80;1.00
827;DHT22;395;48.132;11.608;2022-10-22T16:20:59;18.70;1.00
827;DHT22;395;48.132;11.608;2022-10-22T16:23:25;18.70;1.00
827;DHT22;395;48.132;11.608;2022-10-22T16:25:51;18.70;1.00
827;DHT22;395;48.132;11.608;2022-10-22T16:28:16;18.60;1.00
827;DHT22;395;48.132;11.608;2022-10-22T16:30:42;18.60;1.00
827;DHT22;395;48.132;11.608;2022-10-22T16:33:09;18.50;1.00
827;DHT22;395;48.132;11.608;2022-10-22T16:35:41;18.50;1.00
827;DHT22;395;48.132;11.608;2022-10-22T16:38:08;18.50;1.00
827;DHT22;395;48.132;11.608;2022-10-22T16:40:35;18.40;1.00
827;DHT22;395;48.132;11.608;2022-10-22T16:43:00;18.40;1.00
827;DHT22;395;48.132;11.608;2022-10-22T16:45:26;18.30;1.00
827;DHT22;395;48.132;11.608;2022-10-22T16:47:52;18.30;1.00
827;DHT22;395;48.132;11.608;2022-10-22T16:50:17;18.20;1.00
827;DHT22;395;48.132;11.608;2022-10-22T16:52:43;18.10;1.00
827;DHT22;395;48.132;11.608;2022-10-22T16:55:09;18.00;1.00
827;DHT22;395;48.132;11.608;2022-10-22T16:57:34;18.10;1.00
827;DHT22;395;48.132;11.608;2022-10-22T17:00:01;18.00;1.00
827;DHT22;395;48.132;11.608;2022-10-22T17:02:27;18.00;1.00
827;DHT22;395;48.132;11.608;2022-10-22T17:04:52;17.90;1.00
827;DHT22;395;48.132;11.608;2022-10-22T17:07:18;17.90;1.20
827;DHT22;395;48.132;11.608;2022-10-22T17:09:43;17.90;1.20
827;DHT22;395;48.132;11.608;2022-10-22T17:12:09;17.80;1.20
827;DHT22;395;48.132;11.608;2022-10-22T17:14:35;17.80;1.20
827;DHT22;395;48.132;11.608;2022-10-22T17:17:00;17.70;1.10
827;DHT22;395;48.132;11.608;2022-10-22T17:19:26;17.70;1.10
827;DHT22;395;48.132;11.608;2022-10-22T17:21:52;17.60;1.00
827;DHT22;395;48.132;11.608;2022-10-22T17:24:18;17.60;1.00
827;DHT22;395;48.132;11.608;2022-10-22T17:26:44;17.60;1.10
827;DHT22;395;48.132;11.608;2022-10-22T17:29:11;17.50;1.30
827;DHT22;395;48.132;11.608;2022-10-22T17:31:38;17.50;1.60
827;DHT22;395;48.132;11.608;2022-10-22T17:34:07;17.40;2.00
827;DHT22;395;48.132;11.608;2022-10-22T17:36:34;17.40;2.90
827;DHT22;395;48.132;11.608;2022-10-22T17:39:01;17.40;3.20
827;DHT22;395;48.132;11.608;2022-10-22T17:41:29;17.30;3.60
827;DHT22;395;48.132;11.608;2022-10-22T17:43:56;17.30;4.20
827;DHT22;395;48.132;11.608;2022-10-22T17:46:25;17.30;5.20
827;DHT22;395;48.132;11.608;2022-10-22T17:48:53;17.20;4.80
827;DHT22;395;48.132;11.608;2022-10-22T17:51:19;17.20;4.90
827;DHT22;395;48.132;11.608;2022-10-22T17:53:46;17.10;4.90
827;DHT22;395;48.132;11.608;2022-10-22T17:56:14;17.10;4.90
827;DHT22;395;48.132;11.608;2022-10-22T17:58:40;17.00;5.00
827;DHT22;395;48.132;11.608;2022-10-22T18:01:06;17.00;5.40
827;DHT22;395;48.132;11.608;2022-10-22T18:03:32;17.00;5.30
827;DHT22;395;48.132;11.608;2022-10-22T18:06:06;16.90;5.40
827;DHT22;395;48.132;11.608;2022-10-22T18:08:32;16.90;5.50
827;DHT22;395;48.132;11.608;2022-10-22T18:10:57;16.90;5.50
827;DHT22;395;48.132;11.608;2022-10-22T18:13:24;16.80;5.50